ZPPP/KMG METAR and TAF weather

Enter ICAO airport designator
Station Type Date Time Source
ZPPP METAR 2020/11/28 20:00 UTC NOAA

ZPPP 282000Z 03004MPS 3200 BR SCT003 SCT020 OVC036 05/05 Q1027 NOSIG


Station Type Date Time Source
ZPPP Decoded METAR 2020/11/28 20:00 UTC NOAA

Kunming, China (ZPPP) 25-01N 102-41E 1892M
Nov 28, 2020 - 03:00 PM EST / 2020.11.28 2000 UTC
Wind: from the NNE (030 degrees) at 9 MPH (8 KT):0
Visibility: 1 mile(s):0
Sky conditions: overcast
Weather: mist
Temperature: 41 F (5 C)
Dew Point: 41 F (5 C)
Relative Humidity: 100%
Pressure (altimeter): 30.33 in. Hg (1027 hPa)
ob: ZPPP 282000Z 03004MPS 3200 BR SCT003 SCT020 OVC036 05/05 Q1027 NOSIG
cycle: 20

Station Type Date Time Source
ZPPP TAF 2020/11/28 18:03 UTC NOAA

TAF ZPPP 281509Z 2818/2918 04005MPS 6000 FEW026 SCT040 TX14/2908Z TN05/2823Z
BECMG 2902/2903 23004MPS

Example: see airport list